createdAt,value
2023-02-04T05:00:51.923Z,13.80
2023-02-04T05:15:56.636Z,13.10
2023-02-04T05:31:01.502Z,13.10
2023-02-04T05:46:06.451Z,12.90
2023-02-04T06:01:11.416Z,13.10
2023-02-04T06:16:16.070Z,13.60
2023-02-04T06:31:20.781Z,13.10
2023-02-04T06:46:25.474Z,13.10
2023-02-04T07:01:30.208Z,13.40
2023-02-04T07:16:34.854Z,13.10
2023-02-04T07:31:39.549Z,12.80
2023-02-04T07:46:44.272Z,13.80
2023-02-04T08:01:49.868Z,13.40
2023-02-04T08:16:55.793Z,13.20
2023-02-04T08:32:00.499Z,13.30
2023-02-04T08:47:05.076Z,13.20
2023-02-04T09:02:11.030Z,13.40
2023-02-04T09:17:15.709Z,13.80
2023-02-04T09:32:20.299Z,13.40
2023-02-04T09:47:27.988Z,13.40
2023-02-04T10:02:32.650Z,14.00
2023-02-04T10:17:37.084Z,13.50
2023-02-04T10:32:41.597Z,13.30
2023-02-04T10:47:52.300Z,13.10
2023-02-04T11:03:03.215Z,13.80
2023-02-04T11:18:10.065Z,13.40
2023-02-04T11:33:26.244Z,13.70
2023-02-04T11:48:31.021Z,13.50
2023-02-04T12:03:35.808Z,13.60
2023-02-04T12:18:40.351Z,14.10
2023-02-04T12:33:44.922Z,13.80
2023-02-04T12:48:49.367Z,13.70
2023-02-04T13:03:53.853Z,13.40
2023-02-04T13:18:58.374Z,14.00
2023-02-04T13:34:02.987Z,14.20
2023-02-04T13:49:07.558Z,13.60
2023-02-04T14:04:12.063Z,14.00
2023-02-04T14:19:17.105Z,14.70
2023-02-04T14:34:21.536Z,14.90
2023-02-04T14:49:26.451Z,15.10
2023-02-04T15:04:31.022Z,14.80
2023-02-04T15:19:35.790Z,15.10
2023-02-04T15:34:40.789Z,15.20
2023-02-04T15:49:45.393Z,15.00
2023-02-04T16:04:50.320Z,15.00
2023-02-04T16:19:55.924Z,15.00
2023-02-04T16:35:00.617Z,14.70
2023-02-04T16:50:05.896Z,14.50
2023-02-04T17:05:10.506Z,14.70
2023-02-04T17:20:15.295Z,14.70
2023-02-04T17:35:19.882Z,14.70
2023-02-04T17:50:25.844Z,14.80
2023-02-04T18:05:30.950Z,14.70
2023-02-04T18:20:35.569Z,14.50
2023-02-04T18:35:43.723Z,14.50
2023-02-04T18:50:49.435Z,14.20
2023-02-04T19:05:55.412Z,13.60
2023-02-04T19:21:17.856Z,14.20
2023-02-04T19:36:35.197Z,13.80
2023-02-04T19:51:40.618Z,13.60
2023-02-04T20:06:47.662Z,13.60
2023-02-04T20:22:24.730Z,12.90
2023-02-04T20:37:29.498Z,13.90
2023-02-04T20:53:03.489Z,13.50
2023-02-04T21:08:22.550Z,13.80
2023-02-04T21:23:27.207Z,13.50
2023-02-04T21:38:31.936Z,13.70
2023-02-04T21:53:36.529Z,13.40
